sensor_id;sensor_type;location;lat;lon;timestamp;P1;durP1;ratioP1;P2;durP2;ratioP2
77449;SDS011;66536;53.150;18.172;2023-08-21T00:03:20;10.70;;;9.60;;
77449;SDS011;66536;53.150;18.172;2023-08-21T00:06:25;11.50;;;10.00;;
77449;SDS011;66536;53.150;18.172;2023-08-21T00:09:56;10.50;;;9.40;;
77449;SDS011;66536;53.150;18.172;2023-08-21T00:12:56;11.10;;;10.00;;
77449;SDS011;66536;53.150;18.172;2023-08-21T00:15:31;11.20;;;9.90;;
77449;SDS011;66536;53.150;18.172;2023-08-21T00:38:16;12.40;;;9.50;;
77449;SDS011;66536;53.150;18.172;2023-08-21T00:46:44;10.20;;;9.10;;
77449;SDS011;66536;53.150;18.172;2023-08-21T00:51:03;11.60;;;9.60;;
77449;SDS011;66536;53.150;18.172;2023-08-21T00:59:02;11.30;;;9.00;;
77449;SDS011;66536;53.150;18.172;2023-08-21T01:03:14;12.10;;;8.80;;
77449;SDS011;66536;53.150;18.172;2023-08-21T01:06:16;11.30;;;9.10;;
77449;SDS011;66536;53.150;18.172;2023-08-21T01:10:42;12.10;;;9.00;;
77449;SDS011;66536;53.150;18.172;2023-08-21T01:28:54;10.80;;;9.70;;
77449;SDS011;66536;53.150;18.172;2023-08-21T01:32:33;14.60;;;9.60;;
77449;SDS011;66536;53.150;18.172;2023-08-21T01:36:01;11.30;;;9.50;;
77449;SDS011;66536;53.150;18.172;2023-08-21T01:40:59;11.90;;;9.70;;
77449;SDS011;66536;53.150;18.172;2023-08-21T01:43:50;15.90;;;9.80;;
77449;SDS011;66536;53.150;18.172;2023-08-21T02:09:26;10.90;;;9.10;;
77449;SDS011;66536;53.150;18.172;2023-08-21T02:12:52;10.40;;;8.10;;
77449;SDS011;66536;53.150;18.172;2023-08-21T02:16:06;13.70;;;8.50;;
77449;SDS011;66536;53.150;18.172;2023-08-21T02:24:07;10.80;;;9.00;;
77449;SDS011;66536;53.150;18.172;2023-08-21T02:27:04;11.20;;;8.80;;
77449;SDS011;66536;53.150;18.172;2023-08-21T02:48:11;12.80;;;8.00;;
77449;SDS011;66536;53.150;18.172;2023-08-21T02:55:16;11.40;;;8.40;;
77449;SDS011;66536;53.150;18.172;2023-08-21T02:58:14;12.20;;;8.70;;
77449;SDS011;66536;53.150;18.172;2023-08-21T03:01:06;10.10;;;7.90;;
77449;SDS011;66536;53.150;18.172;2023-08-21T03:03:50;12.50;;;8.80;;
77449;SDS011;66536;53.150;18.172;2023-08-21T03:06:28;13.50;;;8.00;;
77449;SDS011;66536;53.150;18.172;2023-08-21T03:09:24;12.10;;;8.40;;
77449;SDS011;66536;53.150;18.172;2023-08-21T03:12:12;11.70;;;8.40;;
77449;SDS011;66536;53.150;18.172;2023-08-21T03:14:51;10.70;;;8.00;;
77449;SDS011;66536;53.150;18.172;2023-08-21T03:17:41;13.40;;;8.40;;
77449;SDS011;66536;53.150;18.172;2023-08-21T03:20:35;11.90;;;8.00;;
77449;SDS011;66536;53.150;18.172;2023-08-21T03:23:40;10.70;;;7.30;;
77449;SDS011;66536;53.150;18.172;2023-08-21T03:26:47;11.10;;;7.80;;
77449;SDS011;66536;53.150;18.172;2023-08-21T03:29:25;11.70;;;7.90;;
77449;SDS011;66536;53.150;18.172;2023-08-21T03:37:18;16.20;;;9.20;;
77449;SDS011;66536;53.150;18.172;2023-08-21T03:45:54;13.50;;;7.40;;
77449;SDS011;66536;53.150;18.172;2023-08-21T03:49:36;20.90;;;7.80;;
77449;SDS011;66536;53.150;18.172;2023-08-21T03:53:03;12.60;;;7.80;;
77449;SDS011;66536;53.150;18.172;2023-08-21T03:55:36;10.90;;;7.60;;
77449;SDS011;66536;53.150;18.172;2023-08-21T04:02:22;11.80;;;7.80;;
77449;SDS011;66536;53.150;18.172;2023-08-21T04:05:06;10.50;;;8.00;;
77449;SDS011;66536;53.150;18.172;2023-08-21T04:07:32;13.80;;;8.20;;
77449;SDS011;66536;53.150;18.172;2023-08-21T04:10:01;12.30;;;8.10;;
77449;SDS011;66536;53.150;18.172;2023-08-21T04:12:30;13.20;;;7.70;;
77449;SDS011;66536;53.150;18.172;2023-08-21T04:15:21;12.80;;;7.00;;
77449;SDS011;66536;53.150;18.172;2023-08-21T04:18:00;11.80;;;7.70;;
77449;SDS011;66536;53.150;18.172;2023-08-21T04:20:30;10.00;;;6.70;;
77449;SDS011;66536;53.150;18.172;2023-08-21T04:23:05;13.20;;;6.90;;
77449;SDS011;66536;53.150;18.172;2023-08-21T04:25:37;8.80;;;6.80;;
77449;SDS011;66536;53.150;18.172;2023-08-21T04:28:14;10.30;;;6.80;;
77449;SDS011;66536;53.150;18.172;2023-08-21T04:32:10;9.50;;;7.30;;
77449;SDS011;66536;53.150;18.172;2023-08-21T04:34:43;11.90;;;6.80;;
77449;SDS011;66536;53.150;18.172;2023-08-21T04:37:18;11.80;;;6.50;;
77449;SDS011;66536;53.150;18.172;2023-08-21T04:39:54;9.10;;;6.70;;
77449;SDS011;66536;53.150;18.172;2023-08-21T04:42:57;12.10;;;6.80;;
77449;SDS011;66536;53.150;18.172;2023-08-21T04:46:51;15.60;;;6.90;;
77449;SDS011;66536;53.150;18.172;2023-08-21T04:50:32;11.00;;;6.30;;
77449;SDS011;66536;53.150;18.172;2023-08-21T04:53:38;12.30;;;6.40;;
77449;SDS011;66536;53.150;18.172;2023-08-21T04:56:13;11.30;;;5.90;;
77449;SDS011;66536;53.150;18.172;2023-08-21T04:58:48;11.10;;;6.20;;
77449;SDS011;66536;53.150;18.172;2023-08-21T05:01:42;9.50;;;5.40;;
77449;SDS011;66536;53.150;18.172;2023-08-21T05:04:16;11.00;;;6.30;;
77449;SDS011;66536;53.150;18.172;2023-08-21T05:06:53;8.30;;;5.40;;
77449;SDS011;66536;53.150;18.172;2023-08-21T05:09:48;9.30;;;5.80;;
77449;SDS011;66536;53.150;18.172;2023-08-21T05:12:24;8.40;;;5.90;;
77449;SDS011;66536;53.150;18.172;2023-08-21T05:14:57;7.60;;;5.50;;
77449;SDS011;66536;53.150;18.172;2023-08-21T05:17:29;19.80;;;7.50;;
77449;SDS011;66536;53.150;18.172;2023-08-21T05:20:06;9.80;;;5.30;;
77449;SDS011;66536;53.150;18.172;2023-08-21T05:22:45;10.30;;;5.70;;
77449;SDS011;66536;53.150;18.172;2023-08-21T05:25:33;11.80;;;5.40;;
77449;SDS011;66536;53.150;18.172;2023-08-21T05:28:05;6.30;;;4.90;;
77449;SDS011;66536;53.150;18.172;2023-08-21T05:30:45;10.30;;;5.50;;
77449;SDS011;66536;53.150;18.172;2023-08-21T05:33:21;7.20;;;4.70;;
77449;SDS011;66536;53.150;18.172;2023-08-21T05:36:04;5.30;;;4.30;;
77449;SDS011;66536;53.150;18.172;2023-08-21T05:38:44;5.80;;;5.10;;
77449;SDS011;66536;53.150;18.172;2023-08-21T05:41:30;8.70;;;4.60;;
77449;SDS011;66536;53.150;18.172;2023-08-21T05:44:01;7.60;;;3.90;;
77449;SDS011;66536;53.150;18.172;2023-08-21T05:46:35;8.10;;;4.20;;
77449;SDS011;66536;53.150;18.172;2023-08-21T05:49:09;7.40;;;3.90;;
77449;SDS011;66536;53.150;18.172;2023-08-21T05:52:00;7.60;;;4.20;;
77449;SDS011;66536;53.150;18.172;2023-08-21T05:54:39;5.50;;;3.60;;
77449;SDS011;66536;53.150;18.172;2023-08-21T05:57:27;7.70;;;3.70;;
77449;SDS011;66536;53.150;18.172;2023-08-21T06:00:00;5.80;;;3.70;;
77449;SDS011;66536;53.150;18.172;2023-08-21T06:03:05;11.20;;;4.30;;
77449;SDS011;66536;53.150;18.172;2023-08-21T06:06:08;11.30;;;4.20;;
77449;SDS011;66536;53.150;18.172;2023-08-21T06:08:58;5.20;;;3.30;;
77449;SDS011;66536;53.150;18.172;2023-08-21T06:12:34;5.70;;;3.10;;
77449;SDS011;66536;53.150;18.172;2023-08-21T06:15:01;5.70;;;3.00;;
77449;SDS011;66536;53.150;18.172;2023-08-21T06:17:36;3.30;;;2.70;;
77449;SDS011;66536;53.150;18.172;2023-08-21T06:20:04;4.50;;;3.00;;
77449;SDS011;66536;53.150;18.172;2023-08-21T06:22:48;4.60;;;3.20;;
77449;SDS011;66536;53.150;18.172;2023-08-21T06:25:17;5.40;;;2.60;;
77449;SDS011;66536;53.150;18.172;2023-08-21T06:27:55;4.50;;;2.90;;
77449;SDS011;66536;53.150;18.172;2023-08-21T06:30:39;4.80;;;2.70;;
77449;SDS011;66536;53.150;18.172;2023-08-21T06:34:00;5.90;;;3.20;;
77449;SDS011;66536;53.150;18.172;2023-08-21T06:36:30;5.20;;;2.90;;
77449;SDS011;66536;53.150;18.172;2023-08-21T06:40:05;4.70;;;3.00;;
77449;SDS011;66536;53.150;18.172;2023-08-21T06:42:40;6.60;;;4.40;;
77449;SDS011;66536;53.150;18.172;2023-08-21T06:46:22;5.80;;;4.10;;
77449;SDS011;66536;53.150;18.172;2023-08-21T06:50:17;3.10;;;2.70;;
77449;SDS011;66536;53.150;18.172;2023-08-21T06:54:54;6.80;;;3.20;;
77449;SDS011;66536;53.150;18.172;2023-08-21T06:57:14;6.00;;;2.90;;
77449;SDS011;66536;53.150;18.172;2023-08-21T06:59:40;6.10;;;3.50;;
77449;SDS011;66536;53.150;18.172;2023-08-21T07:02:06;7.10;;;3.50;;
77449;SDS011;66536;53.150;18.172;2023-08-21T07:04:32;4.90;;;3.30;;
77449;SDS011;66536;53.150;18.172;2023-08-21T07:06:59;5.70;;;3.20;;
77449;SDS011;66536;53.150;18.172;2023-08-21T07:09:25;4.50;;;2.90;;
77449;SDS011;66536;53.150;18.172;2023-08-21T07:11:51;5.20;;;3.50;;
77449;SDS011;66536;53.150;18.172;2023-08-21T07:14:17;4.90;;;4.10;;
77449;SDS011;66536;53.150;18.172;2023-08-21T07:16:43;5.00;;;3.60;;
77449;SDS011;66536;53.150;18.172;2023-08-21T07:19:09;7.00;;;3.10;;
77449;SDS011;66536;53.150;18.172;2023-08-21T07:21:35;6.10;;;3.10;;
77449;SDS011;66536;53.150;18.172;2023-08-21T07:24:05;6.20;;;3.30;;
77449;SDS011;66536;53.150;18.172;2023-08-21T07:26:31;4.70;;;3.10;;
77449;SDS011;66536;53.150;18.172;2023-08-21T07:28:57;6.30;;;3.10;;
77449;SDS011;66536;53.150;18.172;2023-08-21T07:31:23;4.40;;;3.20;;
77449;SDS011;66536;53.150;18.172;2023-08-21T07:33:49;4.40;;;2.60;;
77449;SDS011;66536;53.150;18.172;2023-08-21T07:36:16;5.50;;;3.30;;
77449;SDS011;66536;53.150;18.172;2023-08-21T07:38:43;6.80;;;3.30;;
77449;SDS011;66536;53.150;18.172;2023-08-21T07:41:10;6.50;;;3.20;;
77449;SDS011;66536;53.150;18.172;2023-08-21T07:43:41;5.80;;;2.60;;
77449;SDS011;66536;53.150;18.172;2023-08-21T07:46:10;4.80;;;2.70;;
77449;SDS011;66536;53.150;18.172;2023-08-21T07:48:44;5.50;;;2.50;;
77449;SDS011;66536;53.150;18.172;2023-08-21T07:51:11;4.70;;;2.30;;
77449;SDS011;66536;53.150;18.172;2023-08-21T07:53:37;4.90;;;2.30;;
77449;SDS011;66536;53.150;18.172;2023-08-21T07:56:03;8.10;;;2.70;;
77449;SDS011;66536;53.150;18.172;2023-08-21T07:58:30;4.90;;;2.40;;
77449;SDS011;66536;53.150;18.172;2023-08-21T08:00:56;7.30;;;2.40;;
77449;SDS011;66536;53.150;18.172;2023-08-21T08:03:22;5.10;;;2.30;;
77449;SDS011;66536;53.150;18.172;2023-08-21T08:05:48;3.40;;;2.10;;
77449;SDS011;66536;53.150;18.172;2023-08-21T08:08:16;5.00;;;2.00;;
77449;SDS011;66536;53.150;18.172;2023-08-21T08:10:43;3.50;;;2.20;;
77449;SDS011;66536;53.150;18.172;2023-08-21T08:13:10;4.90;;;2.40;;
77449;SDS011;66536;53.150;18.172;2023-08-21T08:15:36;5.00;;;2.10;;
77449;SDS011;66536;53.150;18.172;2023-08-21T08:18:02;3.30;;;2.10;;
77449;SDS011;66536;53.150;18.172;2023-08-21T08:20:30;3.00;;;2.10;;
77449;SDS011;66536;53.150;18.172;2023-08-21T08:22:56;3.30;;;1.70;;
77449;SDS011;66536;53.150;18.172;2023-08-21T08:25:22;2.90;;;1.80;;
77449;SDS011;66536;53.150;18.172;2023-08-21T08:27:48;3.40;;;2.20;;
77449;SDS011;66536;53.150;18.172;2023-08-21T08:30:14;4.70;;;2.00;;
77449;SDS011;66536;53.150;18.172;2023-08-21T08:32:42;3.30;;;2.10;;
77449;SDS011;66536;53.150;18.172;2023-08-21T08:35:13;3.00;;;2.10;;
77449;SDS011;66536;53.150;18.172;2023-08-21T08:37:40;4.20;;;2.20;;
77449;SDS011;66536;53.150;18.172;2023-08-21T08:40:10;3.70;;;2.40;;
77449;SDS011;66536;53.150;18.172;2023-08-21T08:42:36;3.00;;;2.20;;
77449;SDS011;66536;53.150;18.172;2023-08-21T08:45:03;4.40;;;2.20;;
77449;SDS011;66536;53.150;18.172;2023-08-21T08:47:33;12.30;;;2.60;;
77449;SDS011;66536;53.150;18.172;2023-08-21T08:50:03;3.60;;;1.90;;
77449;SDS011;66536;53.150;18.172;2023-08-21T08:52:31;6.90;;;2.90;;
77449;SDS011;66536;53.150;18.172;2023-08-21T08:55:02;4.20;;;2.40;;
77449;SDS011;66536;53.150;18.172;2023-08-21T08:57:29;3.00;;;2.20;;
77449;SDS011;66536;53.150;18.172;2023-08-21T08:59:56;3.60;;;2.50;;
77449;SDS011;66536;53.150;18.172;2023-08-21T09:02:23;7.20;;;2.40;;
77449;SDS011;66536;53.150;18.172;2023-08-21T09:04:52;3.70;;;2.30;;
77449;SDS011;66536;53.150;18.172;2023-08-21T09:07:19;5.50;;;2.60;;
77449;SDS011;66536;53.150;18.172;2023-08-21T09:09:46;2.50;;;2.20;;
77449;SDS011;66536;53.150;18.172;2023-08-21T09:12:16;3.10;;;2.00;;
77449;SDS011;66536;53.150;18.172;2023-08-21T09:14:43;6.50;;;2.40;;
77449;SDS011;66536;53.150;18.172;2023-08-21T09:17:09;2.80;;;2.10;;
77449;SDS011;66536;53.150;18.172;2023-08-21T09:19:36;3.60;;;2.50;;
77449;SDS011;66536;53.150;18.172;2023-08-21T09:22:15;4.60;;;2.20;;
77449;SDS011;66536;53.150;18.172;2023-08-21T09:27:32;4.00;;;2.40;;
77449;SDS011;66536;53.150;18.172;2023-08-21T09:30:01;4.60;;;2.30;;
77449;SDS011;66536;53.150;18.172;2023-08-21T09:32:35;5.00;;;2.40;;
77449;SDS011;66536;53.150;18.172;2023-08-21T09:35:18;4.00;;;2.20;;
77449;SDS011;66536;53.150;18.172;2023-08-21T09:37:46;3.60;;;2.00;;
77449;SDS011;66536;53.150;18.172;2023-08-21T09:40:13;5.20;;;2.40;;
77449;SDS011;66536;53.150;18.172;2023-08-21T09:42:41;2.80;;;2.20;;
77449;SDS011;66536;53.150;18.172;2023-08-21T09:45:08;6.40;;;2.00;;
77449;SDS011;66536;53.150;18.172;2023-08-21T09:47:34;5.10;;;2.20;;
77449;SDS011;66536;53.150;18.172;2023-08-21T09:50:02;3.80;;;2.40;;
77449;SDS011;66536;53.150;18.172;2023-08-21T09:52:28;3.10;;;1.80;;
77449;SDS011;66536;53.150;18.172;2023-08-21T09:54:56;6.90;;;1.90;;
77449;SDS011;66536;53.150;18.172;2023-08-21T09:57:23;3.20;;;1.60;;
77449;SDS011;66536;53.150;18.172;2023-08-21T09:59:51;2.60;;;1.70;;
77449;SDS011;66536;53.150;18.172;2023-08-21T10:02:21;2.30;;;1.90;;
77449;SDS011;66536;53.150;18.172;2023-08-21T10:04:49;2.30;;;2.00;;
77449;SDS011;66536;53.150;18.172;2023-08-21T10:07:16;3.20;;;1.90;;
77449;SDS011;66536;53.150;18.172;2023-08-21T10:09:45;3.40;;;1.70;;
77449;SDS011;66536;53.150;18.172;2023-08-21T10:12:12;3.30;;;1.60;;
77449;SDS011;66536;53.150;18.172;2023-08-21T10:14:42;4.50;;;1.80;;
77449;SDS011;66536;53.150;18.172;2023-08-21T10:17:08;2.60;;;1.70;;
77449;SDS011;66536;53.150;18.172;2023-08-21T10:19:35;3.10;;;1.90;;
77449;SDS011;66536;53.150;18.172;2023-08-21T10:22:01;4.30;;;2.30;;
77449;SDS011;66536;53.150;18.172;2023-08-21T10:24:33;4.40;;;2.20;;
77449;SDS011;66536;53.150;18.172;2023-08-21T10:27:01;2.80;;;2.10;;
77449;SDS011;66536;53.150;18.172;2023-08-21T10:29:28;3.20;;;1.80;;
77449;SDS011;66536;53.150;18.172;2023-08-21T10:31:58;2.90;;;1.80;;
77449;SDS011;66536;53.150;18.172;2023-08-21T10:34:35;3.60;;;2.30;;
77449;SDS011;66536;53.150;18.172;2023-08-21T10:37:06;8.30;;;5.60;;
77449;SDS011;66536;53.150;18.172;2023-08-21T10:39:35;4.20;;;3.10;;
77449;SDS011;66536;53.150;18.172;2023-08-21T10:42:07;5.00;;;1.80;;
77449;SDS011;66536;53.150;18.172;2023-08-21T10:44:47;32.30;;;20.80;;
77449;SDS011;66536;53.150;18.172;2023-08-21T10:47:31;61.70;;;41.70;;
77449;SDS011;66536;53.150;18.172;2023-08-21T10:50:10;16.20;;;3.90;;
77449;SDS011;66536;53.150;18.172;2023-08-21T10:52:37;4.80;;;2.60;;
77449;SDS011;66536;53.150;18.172;2023-08-21T10:55:08;8.90;;;3.70;;
77449;SDS011;66536;53.150;18.172;2023-08-21T10:57:36;4.60;;;3.30;;
77449;SDS011;66536;53.150;18.172;2023-08-21T11:00:03;17.60;;;14.80;;
77449;SDS011;66536;53.150;18.172;2023-08-21T11:02:35;5.10;;;2.50;;
77449;SDS011;66536;53.150;18.172;2023-08-21T11:05:02;4.50;;;2.40;;
77449;SDS011;66536;53.150;18.172;2023-08-21T11:07:30;3.10;;;2.20;;
77449;SDS011;66536;53.150;18.172;2023-08-21T11:10:02;3.90;;;2.40;;
77449;SDS011;66536;53.150;18.172;2023-08-21T11:12:29;5.50;;;2.40;;
77449;SDS011;66536;53.150;18.172;2023-08-21T11:14:55;5.00;;;2.80;;
77449;SDS011;66536;53.150;18.172;2023-08-21T11:17:21;16.40;;;3.20;;
77449;SDS011;66536;53.150;18.172;2023-08-21T11:19:48;3.70;;;2.80;;
77449;SDS011;66536;53.150;18.172;2023-08-21T11:22:18;9.50;;;6.50;;
77449;SDS011;66536;53.150;18.172;2023-08-21T11:24:46;3.30;;;2.20;;
77449;SDS011;66536;53.150;18.172;2023-08-21T11:27:14;4.30;;;2.60;;
77449;SDS011;66536;53.150;18.172;2023-08-21T11:29:42;4.40;;;2.60;;
77449;SDS011;66536;53.150;18.172;2023-08-21T11:32:14;2.60;;;2.40;;
77449;SDS011;66536;53.150;18.172;2023-08-21T11:34:42;5.10;;;2.90;;
77449;SDS011;66536;53.150;18.172;2023-08-21T11:37:13;3.30;;;2.50;;
77449;SDS011;66536;53.150;18.172;2023-08-21T11:42:18;14.30;;;3.00;;
77449;SDS011;66536;53.150;18.172;2023-08-21T11:44:50;5.30;;;2.40;;
77449;SDS011;66536;53.150;18.172;2023-08-21T11:47:18;10.10;;;2.70;;
77449;SDS011;66536;53.150;18.172;2023-08-21T11:49:46;8.00;;;3.00;;
77449;SDS011;66536;53.150;18.172;2023-08-21T11:52:19;8.60;;;2.00;;
77449;SDS011;66536;53.150;18.172;2023-08-21T11:54:48;2.90;;;2.40;;
77449;SDS011;66536;53.150;18.172;2023-08-21T11:57:15;4.00;;;2.40;;
77449;SDS011;66536;53.150;18.172;2023-08-21T11:59:41;3.00;;;2.60;;
77449;SDS011;66536;53.150;18.172;2023-08-21T12:02:09;4.70;;;2.40;;
77449;SDS011;66536;53.150;18.172;2023-08-21T12:04:39;4.40;;;2.40;;
77449;SDS011;66536;53.150;18.172;2023-08-21T12:07:07;5.30;;;2.60;;
77449;SDS011;66536;53.150;18.172;2023-08-21T12:09:33;3.60;;;2.50;;
77449;SDS011;66536;53.150;18.172;2023-08-21T12:11:59;4.00;;;3.20;;
77449;SDS011;66536;53.150;18.172;2023-08-21T12:14:26;3.70;;;2.80;;
77449;SDS011;66536;53.150;18.172;2023-08-21T12:16:56;3.10;;;2.50;;
77449;SDS011;66536;53.150;18.172;2023-08-21T12:19:22;4.50;;;2.80;;
77449;SDS011;66536;53.150;18.172;2023-08-21T12:21:49;6.40;;;2.50;;
77449;SDS011;66536;53.150;18.172;2023-08-21T12:24:35;6.20;;;2.80;;
77449;SDS011;66536;53.150;18.172;2023-08-21T12:27:03;6.70;;;2.60;;
77449;SDS011;66536;53.150;18.172;2023-08-21T12:29:32;5.00;;;2.50;;
77449;SDS011;66536;53.150;18.172;2023-08-21T12:31:59;7.00;;;3.40;;
77449;SDS011;66536;53.150;18.172;2023-08-21T12:34:26;3.60;;;2.60;;
77449;SDS011;66536;53.150;18.172;2023-08-21T12:36:53;3.80;;;3.00;;
77449;SDS011;66536;53.150;18.172;2023-08-21T12:39:19;3.40;;;2.70;;
77449;SDS011;66536;53.150;18.172;2023-08-21T12:41:45;11.70;;;3.30;;
77449;SDS011;66536;53.150;18.172;2023-08-21T12:44:11;4.00;;;2.80;;
77449;SDS011;66536;53.150;18.172;2023-08-21T12:46:37;3.50;;;2.80;;
77449;SDS011;66536;53.150;18.172;2023-08-21T12:49:03;30.30;;;4.30;;
77449;SDS011;66536;53.150;18.172;2023-08-21T12:51:30;13.30;;;3.50;;
77449;SDS011;66536;53.150;18.172;2023-08-21T12:53:57;17.10;;;3.50;;
77449;SDS011;66536;53.150;18.172;2023-08-21T12:56:24;5.40;;;2.40;;
77449;SDS011;66536;53.150;18.172;2023-08-21T12:58:51;4.90;;;2.30;;
77449;SDS011;66536;53.150;18.172;2023-08-21T13:01:17;4.70;;;3.00;;
77449;SDS011;66536;53.150;18.172;2023-08-21T13:03:44;6.20;;;2.60;;
77449;SDS011;66536;53.150;18.172;2023-08-21T13:06:14;4.60;;;2.70;;
77449;SDS011;66536;53.150;18.172;2023-08-21T13:08:40;6.70;;;2.70;;
77449;SDS011;66536;53.150;18.172;2023-08-21T13:11:06;6.90;;;2.60;;
77449;SDS011;66536;53.150;18.172;2023-08-21T13:13:33;6.00;;;3.00;;
77449;SDS011;66536;53.150;18.172;2023-08-21T13:15:59;4.30;;;2.60;;
77449;SDS011;66536;53.150;18.172;2023-08-21T13:18:27;5.10;;;2.60;;
77449;SDS011;66536;53.150;18.172;2023-08-21T13:20:53;3.80;;;2.70;;
77449;SDS011;66536;53.150;18.172;2023-08-21T13:23:19;4.20;;;2.30;;
77449;SDS011;66536;53.150;18.172;2023-08-21T13:25:44;6.90;;;2.80;;
77449;SDS011;66536;53.150;18.172;2023-08-21T13:28:10;7.10;;;2.90;;
77449;SDS011;66536;53.150;18.172;2023-08-21T13:30:36;7.10;;;2.60;;
77449;SDS011;66536;53.150;18.172;2023-08-21T13:33:03;5.00;;;2.80;;
77449;SDS011;66536;53.150;18.172;2023-08-21T13:35:30;3.90;;;2.80;;
77449;SDS011;66536;53.150;18.172;2023-08-21T13:37:56;3.50;;;2.80;;
77449;SDS011;66536;53.150;18.172;2023-08-21T13:40:23;4.40;;;2.40;;
77449;SDS011;66536;53.150;18.172;2023-08-21T13:42:50;16.20;;;3.60;;
77449;SDS011;66536;53.150;18.172;2023-08-21T13:45:17;13.30;;;3.00;;
77449;SDS011;66536;53.150;18.172;2023-08-21T13:47:45;10.70;;;2.70;;
77449;SDS011;66536;53.150;18.172;2023-08-21T13:50:13;8.70;;;3.10;;
77449;SDS011;66536;53.150;18.172;2023-08-21T13:52:41;4.90;;;2.50;;
77449;SDS011;66536;53.150;18.172;2023-08-21T13:55:09;6.80;;;2.90;;
77449;SDS011;66536;53.150;18.172;2023-08-21T13:57:36;8.70;;;2.90;;
77449;SDS011;66536;53.150;18.172;2023-08-21T14:00:06;5.30;;;2.70;;
77449;SDS011;66536;53.150;18.172;2023-08-21T14:02:37;6.10;;;3.10;;
77449;SDS011;66536;53.150;18.172;2023-08-21T14:05:06;8.40;;;2.90;;
77449;SDS011;66536;53.150;18.172;2023-08-21T14:07:33;9.70;;;3.00;;
77449;SDS011;66536;53.150;18.172;2023-08-21T14:10:00;8.10;;;2.80;;
77449;SDS011;66536;53.150;18.172;2023-08-21T14:12:28;3.40;;;2.50;;
77449;SDS011;66536;53.150;18.172;2023-08-21T14:14:55;5.40;;;2.90;;
77449;SDS011;66536;53.150;18.172;2023-08-21T14:17:21;11.60;;;3.60;;
77449;SDS011;66536;53.150;18.172;2023-08-21T14:19:47;7.30;;;2.60;;
77449;SDS011;66536;53.150;18.172;2023-08-21T14:22:13;6.90;;;2.90;;
77449;SDS011;66536;53.150;18.172;2023-08-21T14:24:39;6.90;;;2.90;;
77449;SDS011;66536;53.150;18.172;2023-08-21T14:27:05;4.30;;;2.60;;
77449;SDS011;66536;53.150;18.172;2023-08-21T14:29:31;8.30;;;2.70;;
77449;SDS011;66536;53.150;18.172;2023-08-21T14:31:57;5.80;;;3.00;;
77449;SDS011;66536;53.150;18.172;2023-08-21T14:34:27;4.80;;;3.30;;
77449;SDS011;66536;53.150;18.172;2023-08-21T14:36:53;5.10;;;3.10;;
77449;SDS011;66536;53.150;18.172;2023-08-21T14:39:22;4.30;;;2.80;;
77449;SDS011;66536;53.150;18.172;2023-08-21T14:41:54;8.20;;;3.30;;
77449;SDS011;66536;53.150;18.172;2023-08-21T14:44:21;10.40;;;3.20;;
77449;SDS011;66536;53.150;18.172;2023-08-21T14:46:48;16.70;;;3.10;;
77449;SDS011;66536;53.150;18.172;2023-08-21T14:49:14;5.30;;;2.60;;
77449;SDS011;66536;53.150;18.172;2023-08-21T14:51:40;9.50;;;2.80;;
77449;SDS011;66536;53.150;18.172;2023-08-21T14:54:06;5.70;;;3.10;;
77449;SDS011;66536;53.150;18.172;2023-08-21T14:56:32;14.70;;;3.50;;
77449;SDS011;66536;53.150;18.172;2023-08-21T14:58:59;5.60;;;3.10;;
77449;SDS011;66536;53.150;18.172;2023-08-21T15:01:25;5.50;;;3.00;;
77449;SDS011;66536;53.150;18.172;2023-08-21T15:03:51;5.50;;;2.70;;
77449;SDS011;66536;53.150;18.172;2023-08-21T15:06:17;6.50;;;3.70;;
77449;SDS011;66536;53.150;18.172;2023-08-21T15:08:42;7.80;;;3.10;;
77449;SDS011;66536;53.150;18.172;2023-08-21T15:11:08;6.00;;;3.60;;
77449;SDS011;66536;53.150;18.172;2023-08-21T15:13:36;5.30;;;3.50;;
77449;SDS011;66536;53.150;18.172;2023-08-21T15:16:03;6.70;;;3.20;;
77449;SDS011;66536;53.150;18.172;2023-08-21T15:18:30;12.40;;;3.90;;
77449;SDS011;66536;53.150;18.172;2023-08-21T15:20:56;4.20;;;3.40;;
77449;SDS011;66536;53.150;18.172;2023-08-21T15:23:23;6.10;;;4.00;;
77449;SDS011;66536;53.150;18.172;2023-08-21T15:25:50;4.60;;;3.80;;
77449;SDS011;66536;53.150;18.172;2023-08-21T15:28:17;7.60;;;3.70;;
77449;SDS011;66536;53.150;18.172;2023-08-21T15:30:43;5.50;;;4.10;;
77449;SDS011;66536;53.150;18.172;2023-08-21T15:33:09;4.60;;;4.20;;
77449;SDS011;66536;53.150;18.172;2023-08-21T15:35:35;5.50;;;4.40;;
77449;SDS011;66536;53.150;18.172;2023-08-21T15:38:01;10.50;;;4.50;;
77449;SDS011;66536;53.150;18.172;2023-08-21T15:40:27;6.00;;;4.60;;
77449;SDS011;66536;53.150;18.172;2023-08-21T15:42:53;7.80;;;4.40;;
77449;SDS011;66536;53.150;18.172;2023-08-21T15:45:20;10.00;;;5.10;;
77449;SDS011;66536;53.150;18.172;2023-08-21T15:47:47;5.90;;;5.30;;
77449;SDS011;66536;53.150;18.172;2023-08-21T15:50:14;5.20;;;4.60;;
77449;SDS011;66536;53.150;18.172;2023-08-21T15:52:45;4.70;;;4.40;;
77449;SDS011;66536;53.150;18.172;2023-08-21T15:55:14;7.80;;;4.00;;
77449;SDS011;66536;53.150;18.172;2023-08-21T15:57:41;4.20;;;3.10;;
77449;SDS011;66536;53.150;18.172;2023-08-21T16:00:07;12.30;;;3.80;;
77449;SDS011;66536;53.150;18.172;2023-08-21T16:02:35;6.30;;;4.40;;
77449;SDS011;66536;53.150;18.172;2023-08-21T16:05:01;3.90;;;3.10;;
77449;SDS011;66536;53.150;18.172;2023-08-21T16:07:28;5.30;;;3.50;;
77449;SDS011;66536;53.150;18.172;2023-08-21T16:10:00;5.00;;;3.20;;
77449;SDS011;66536;53.150;18.172;2023-08-21T16:12:26;5.90;;;2.60;;
77449;SDS011;66536;53.150;18.172;2023-08-21T16:14:55;8.60;;;3.60;;
77449;SDS011;66536;53.150;18.172;2023-08-21T16:17:21;5.20;;;4.00;;
77449;SDS011;66536;53.150;18.172;2023-08-21T16:19:48;15.10;;;4.10;;
77449;SDS011;66536;53.150;18.172;2023-08-21T16:22:14;6.60;;;3.00;;
77449;SDS011;66536;53.150;18.172;2023-08-21T16:24:40;5.90;;;4.30;;
77449;SDS011;66536;53.150;18.172;2023-08-21T16:27:06;10.80;;;4.30;;
77449;SDS011;66536;53.150;18.172;2023-08-21T16:29:31;8.80;;;4.20;;
77449;SDS011;66536;53.150;18.172;2023-08-21T16:31:58;16.00;;;4.30;;
77449;SDS011;66536;53.150;18.172;2023-08-21T16:34:26;5.30;;;4.00;;
77449;SDS011;66536;53.150;18.172;2023-08-21T16:36:52;6.50;;;3.90;;
77449;SDS011;66536;53.150;18.172;2023-08-21T16:39:22;6.30;;;4.60;;
77449;SDS011;66536;53.150;18.172;2023-08-21T16:41:48;9.70;;;3.90;;
77449;SDS011;66536;53.150;18.172;2023-08-21T16:44:14;6.00;;;4.00;;
77449;SDS011;66536;53.150;18.172;2023-08-21T16:46:42;4.40;;;3.60;;
77449;SDS011;66536;53.150;18.172;2023-08-21T16:49:11;4.80;;;3.50;;
77449;SDS011;66536;53.150;18.172;2023-08-21T16:51:37;5.60;;;3.60;;
77449;SDS011;66536;53.150;18.172;2023-08-21T16:54:03;4.60;;;3.60;;
77449;SDS011;66536;53.150;18.172;2023-08-21T16:56:29;8.20;;;3.10;;
77449;SDS011;66536;53.150;18.172;2023-08-21T16:58:55;18.40;;;3.50;;
77449;SDS011;66536;53.150;18.172;2023-08-21T17:01:27;12.00;;;3.30;;
77449;SDS011;66536;53.150;18.172;2023-08-21T17:03:55;4.00;;;3.10;;
77449;SDS011;66536;53.150;18.172;2023-08-21T17:06:22;7.90;;;2.90;;
77449;SDS011;66536;53.150;18.172;2023-08-21T17:08:51;4.60;;;2.90;;
77449;SDS011;66536;53.150;18.172;2023-08-21T17:11:17;6.10;;;3.00;;
77449;SDS011;66536;53.150;18.172;2023-08-21T17:13:43;4.60;;;3.00;;
77449;SDS011;66536;53.150;18.172;2023-08-21T17:16:11;10.90;;;3.20;;
77449;SDS011;66536;53.150;18.172;2023-08-21T17:18:38;10.00;;;3.40;;
77449;SDS011;66536;53.150;18.172;2023-08-21T17:21:04;5.40;;;2.80;;